sensor_id;sensor_type;location;lat;lon;timestamp;P1;P2;P0
46885;PMS5003;32622;48.202;11.326;2024-02-21T00:01:43;16;16;
46885;PMS5003;32622;48.202;11.326;2024-02-21T00:03:45;16;16;
46885;PMS5003;32622;48.202;11.326;2024-02-21T00:05:47;14;14;
46885;PMS5003;32622;48.202;11.326;2024-02-21T00:07:49;14;14;
46885;PMS5003;32622;48.202;11.326;2024-02-21T00:09:51;14;14;
46885;PMS5003;32622;48.202;11.326;2024-02-21T00:11:54;14;14;
46885;PMS5003;32622;48.202;11.326;2024-02-21T00:13:56;15;15;
46885;PMS5003;32622;48.202;11.326;2024-02-21T00:15:59;15;15;
46885;PMS5003;32622;48.202;11.326;2024-02-21T00:18:02;16;16;
46885;PMS5003;32622;48.202;11.326;2024-02-21T00:20:05;16;16;
46885;PMS5003;32622;48.202;11.326;2024-02-21T00:22:08;16;16;
46885;PMS5003;32622;48.202;11.326;2024-02-21T00:24:10;17;16;
46885;PMS5003;32622;48.202;11.326;2024-02-21T00:26:12;17;16;
46885;PMS5003;32622;48.202;11.326;2024-02-21T00:28:14;16;15;
46885;PMS5003;32622;48.202;11.326;2024-02-21T00:30:16;15;14;
46885;PMS5003;32622;48.202;11.326;2024-02-21T00:32:18;15;14;
46885;PMS5003;32622;48.202;11.326;2024-02-21T00:34:20;16;15;
46885;PMS5003;32622;48.202;11.326;2024-02-21T00:36:23;18;17;
46885;PMS5003;32622;48.202;11.326;2024-02-21T00:38:25;18;17;
46885;PMS5003;32622;48.202;11.326;2024-02-21T00:40:27;18;17;
46885;PMS5003;32622;48.202;11.326;2024-02-21T00:42:29;17;16;
46885;PMS5003;32622;48.202;11.326;2024-02-21T00:44:31;17;16;
46885;PMS5003;32622;48.202;11.326;2024-02-21T00:46:33;18;17;
46885;PMS5003;32622;48.202;11.326;2024-02-21T00:48:35;19;18;
46885;PMS5003;32622;48.202;11.326;2024-02-21T00:50:37;18;17;
46885;PMS5003;32622;48.202;11.326;2024-02-21T00:52:40;17;17;
46885;PMS5003;32622;48.202;11.326;2024-02-21T00:54:42;17;17;
46885;PMS5003;32622;48.202;11.326;2024-02-21T00:56:44;17;17;
46885;PMS5003;32622;48.202;11.326;2024-02-21T00:58:46;16;16;
46885;PMS5003;32622;48.202;11.326;2024-02-21T01:00:48;16;16;
46885;PMS5003;32622;48.202;11.326;2024-02-21T01:02:50;16;16;
46885;PMS5003;32622;48.202;11.326;2024-02-21T01:04:52;16;16;
46885;PMS5003;32622;48.202;11.326;2024-02-21T01:06:55;18;16;
46885;PMS5003;32622;48.202;11.326;2024-02-21T01:08:57;18;16;
46885;PMS5003;32622;48.202;11.326;2024-02-21T01:10:59;18;16;
46885;PMS5003;32622;48.202;11.326;2024-02-21T01:13:01;17;15;
46885;PMS5003;32622;48.202;11.326;2024-02-21T01:15:03;17;15;
46885;PMS5003;32622;48.202;11.326;2024-02-21T01:17:06;17;15;
46885;PMS5003;32622;48.202;11.326;2024-02-21T01:19:08;17;15;
46885;PMS5003;32622;48.202;11.326;2024-02-21T01:21:11;17;15;
46885;PMS5003;32622;48.202;11.326;2024-02-21T01:23:13;17;15;
46885;PMS5003;32622;48.202;11.326;2024-02-21T01:25:15;17;16;
46885;PMS5003;32622;48.202;11.326;2024-02-21T01:27:17;17;16;
46885;PMS5003;32622;48.202;11.326;2024-02-21T01:29:19;17;16;
46885;PMS5003;32622;48.202;11.326;2024-02-21T01:31:21;17;16;
46885;PMS5003;32622;48.202;11.326;2024-02-21T01:33:24;17;16;
46885;PMS5003;32622;48.202;11.326;2024-02-21T01:35:26;17;16;
46885;PMS5003;32622;48.202;11.326;2024-02-21T01:37:28;18;16;
46885;PMS5003;32622;48.202;11.326;2024-02-21T01:39:30;18;16;
46885;PMS5003;32622;48.202;11.326;2024-02-21T01:41:32;18;16;
46885;PMS5003;32622;48.202;11.326;2024-02-21T01:43:34;17;15;
46885;PMS5003;32622;48.202;11.326;2024-02-21T01:45:36;17;15;
46885;PMS5003;32622;48.202;11.326;2024-02-21T01:47:39;17;15;
46885;PMS5003;32622;48.202;11.326;2024-02-21T01:49:41;15;14;
46885;PMS5003;32622;48.202;11.326;2024-02-21T01:51:44;15;14;
46885;PMS5003;32622;48.202;11.326;2024-02-21T01:53:46;15;14;
46885;PMS5003;32622;48.202;11.326;2024-02-21T01:55:49;15;13;
46885;PMS5003;32622;48.202;11.326;2024-02-21T01:57:51;15;13;
46885;PMS5003;32622;48.202;11.326;2024-02-21T01:59:53;15;13;
46885;PMS5003;32622;48.202;11.326;2024-02-21T02:01:55;15;13;
46885;PMS5003;32622;48.202;11.326;2024-02-21T02:03:57;15;13;
46885;PMS5003;32622;48.202;11.326;2024-02-21T02:06:01;15;13;
46885;PMS5003;32622;48.202;11.326;2024-02-21T02:08:04;13;13;
46885;PMS5003;32622;48.202;11.326;2024-02-21T02:10:08;13;13;
46885;PMS5003;32622;48.202;11.326;2024-02-21T02:12:10;13;13;
46885;PMS5003;32622;48.202;11.326;2024-02-21T02:14:12;15;14;
46885;PMS5003;32622;48.202;11.326;2024-02-21T02:16:14;15;14;
46885;PMS5003;32622;48.202;11.326;2024-02-21T02:18:17;15;14;
46885;PMS5003;32622;48.202;11.326;2024-02-21T02:20:20;15;14;
46885;PMS5003;32622;48.202;11.326;2024-02-21T02:22:23;15;14;
46885;PMS5003;32622;48.202;11.326;2024-02-21T02:24:29;15;14;
46885;PMS5003;32622;48.202;11.326;2024-02-21T02:26:32;15;14;
46885;PMS5003;32622;48.202;11.326;2024-02-21T02:28:34;15;14;
46885;PMS5003;32622;48.202;11.326;2024-02-21T02:30:36;15;14;
46885;PMS5003;32622;48.202;11.326;2024-02-21T02:32:38;16;14;
46885;PMS5003;32622;48.202;11.326;2024-02-21T02:34:40;16;14;
46885;PMS5003;32622;48.202;11.326;2024-02-21T02:36:42;16;14;
46885;PMS5003;32622;48.202;11.326;2024-02-21T02:38:44;16;14;
46885;PMS5003;32622;48.202;11.326;2024-02-21T02:40:46;16;14;
46885;PMS5003;32622;48.202;11.326;2024-02-21T02:42:48;16;14;
46885;PMS5003;32622;48.202;11.326;2024-02-21T02:44:51;16;15;
46885;PMS5003;32622;48.202;11.326;2024-02-21T02:46:53;16;15;
46885;PMS5003;32622;48.202;11.326;2024-02-21T02:48:55;16;15;
46885;PMS5003;32622;48.202;11.326;2024-02-21T02:50:57;17;16;
46885;PMS5003;32622;48.202;11.326;2024-02-21T02:52:59;17;16;
46885;PMS5003;32622;48.202;11.326;2024-02-21T02:55:01;17;16;
46885;PMS5003;32622;48.202;11.326;2024-02-21T02:57:04;18;17;
46885;PMS5003;32622;48.202;11.326;2024-02-21T02:59:06;18;17;
46885;PMS5003;32622;48.202;11.326;2024-02-21T03:01:08;18;17;
46885;PMS5003;32622;48.202;11.326;2024-02-21T03:03:10;18;17;
46885;PMS5003;32622;48.202;11.326;2024-02-21T03:05:13;18;17;
46885;PMS5003;32622;48.202;11.326;2024-02-21T03:07:16;18;17;
46885;PMS5003;32622;48.202;11.326;2024-02-21T03:09:18;18;16;
46885;PMS5003;32622;48.202;11.326;2024-02-21T03:11:20;18;16;
46885;PMS5003;32622;48.202;11.326;2024-02-21T03:13:22;18;16;
46885;PMS5003;32622;48.202;11.326;2024-02-21T03:15:24;17;17;
46885;PMS5003;32622;48.202;11.326;2024-02-21T03:17:27;17;17;
46885;PMS5003;32622;48.202;11.326;2024-02-21T03:19:29;17;17;
46885;PMS5003;32622;48.202;11.326;2024-02-21T03:21:31;17;17;
46885;PMS5003;32622;48.202;11.326;2024-02-21T03:23:33;17;17;
46885;PMS5003;32622;48.202;11.326;2024-02-21T03:25:35;17;17;
46885;PMS5003;32622;48.202;11.326;2024-02-21T03:27:38;16;16;
46885;PMS5003;32622;48.202;11.326;2024-02-21T03:29:40;16;16;
46885;PMS5003;32622;48.202;11.326;2024-02-21T03:31:42;16;16;
46885;PMS5003;32622;48.202;11.326;2024-02-21T03:33:45;16;16;
46885;PMS5003;32622;48.202;11.326;2024-02-21T03:35:47;16;16;
46885;PMS5003;32622;48.202;11.326;2024-02-21T03:37:49;16;16;
46885;PMS5003;32622;48.202;11.326;2024-02-21T03:39:51;16;16;
46885;PMS5003;32622;48.202;11.326;2024-02-21T03:41:53;16;16;
46885;PMS5003;32622;48.202;11.326;2024-02-21T03:43:55;16;16;
46885;PMS5003;32622;48.202;11.326;2024-02-21T03:45:57;18;17;
46885;PMS5003;32622;48.202;11.326;2024-02-21T03:47:59;18;17;
46885;PMS5003;32622;48.202;11.326;2024-02-21T03:50:01;18;17;
46885;PMS5003;32622;48.202;11.326;2024-02-21T03:52:04;17;16;
46885;PMS5003;32622;48.202;11.326;2024-02-21T03:54:06;17;16;
46885;PMS5003;32622;48.202;11.326;2024-02-21T03:56:08;17;16;
46885;PMS5003;32622;48.202;11.326;2024-02-21T03:58:10;16;15;
46885;PMS5003;32622;48.202;11.326;2024-02-21T04:00:13;16;15;
46885;PMS5003;32622;48.202;11.326;2024-02-21T04:02:15;16;15;
46885;PMS5003;32622;48.202;11.326;2024-02-21T04:04:17;16;15;
46885;PMS5003;32622;48.202;11.326;2024-02-21T04:06:19;16;15;
46885;PMS5003;32622;48.202;11.326;2024-02-21T04:08:22;16;15;
46885;PMS5003;32622;48.202;11.326;2024-02-21T04:10:24;16;15;
46885;PMS5003;32622;48.202;11.326;2024-02-21T04:12:26;15;14;
46885;PMS5003;32622;48.202;11.326;2024-02-21T04:14:28;15;14;
46885;PMS5003;32622;48.202;11.326;2024-02-21T04:16:30;15;14;
46885;PMS5003;32622;48.202;11.326;2024-02-21T04:18:33;16;15;
46885;PMS5003;32622;48.202;11.326;2024-02-21T04:20:35;16;15;
46885;PMS5003;32622;48.202;11.326;2024-02-21T04:22:37;16;15;
46885;PMS5003;32622;48.202;11.326;2024-02-21T04:24:39;16;15;
46885;PMS5003;32622;48.202;11.326;2024-02-21T04:26:41;16;15;
46885;PMS5003;32622;48.202;11.326;2024-02-21T04:28:44;16;15;
46885;PMS5003;32622;48.202;11.326;2024-02-21T04:30:46;16;15;
46885;PMS5003;32622;48.202;11.326;2024-02-21T04:32:48;16;15;
46885;PMS5003;32622;48.202;11.326;2024-02-21T04:34:51;16;15;
46885;PMS5003;32622;48.202;11.326;2024-02-21T04:36:53;16;15;
46885;PMS5003;32622;48.202;11.326;2024-02-21T04:38:55;16;15;
46885;PMS5003;32622;48.202;11.326;2024-02-21T04:40:57;16;15;
46885;PMS5003;32622;48.202;11.326;2024-02-21T04:42:59;16;15;
46885;PMS5003;32622;48.202;11.326;2024-02-21T04:45:01;16;15;
46885;PMS5003;32622;48.202;11.326;2024-02-21T04:47:03;13;13;
46885;PMS5003;32622;48.202;11.326;2024-02-21T04:49:06;13;13;
46885;PMS5003;32622;48.202;11.326;2024-02-21T04:51:08;13;13;
46885;PMS5003;32622;48.202;11.326;2024-02-21T04:53:10;14;14;
46885;PMS5003;32622;48.202;11.326;2024-02-21T04:55:12;14;14;
46885;PMS5003;32622;48.202;11.326;2024-02-21T04:57:14;14;14;
46885;PMS5003;32622;48.202;11.326;2024-02-21T04:59:17;13;13;
46885;PMS5003;32622;48.202;11.326;2024-02-21T05:01:19;13;13;
46885;PMS5003;32622;48.202;11.326;2024-02-21T05:03:21;13;13;
46885;PMS5003;32622;48.202;11.326;2024-02-21T05:05:23;16;14;
46885;PMS5003;32622;48.202;11.326;2024-02-21T05:07:25;16;14;
46885;PMS5003;32622;48.202;11.326;2024-02-21T05:09:27;16;14;
46885;PMS5003;32622;48.202;11.326;2024-02-21T05:11:29;15;14;
46885;PMS5003;32622;48.202;11.326;2024-02-21T05:13:32;15;14;
46885;PMS5003;32622;48.202;11.326;2024-02-21T05:15:34;15;14;
46885;PMS5003;32622;48.202;11.326;2024-02-21T05:17:36;15;14;
46885;PMS5003;32622;48.202;11.326;2024-02-21T05:19:38;15;14;
46885;PMS5003;32622;48.202;11.326;2024-02-21T05:21:40;15;14;
46885;PMS5003;32622;48.202;11.326;2024-02-21T05:23:42;14;13;
46885;PMS5003;32622;48.202;11.326;2024-02-21T05:25:44;14;13;
46885;PMS5003;32622;48.202;11.326;2024-02-21T05:27:46;14;13;
46885;PMS5003;32622;48.202;11.326;2024-02-21T05:29:48;16;13;
46885;PMS5003;32622;48.202;11.326;2024-02-21T05:31:58;16;13;
46885;PMS5003;32622;48.202;11.326;2024-02-21T05:34:00;16;13;
46885;PMS5003;32622;48.202;11.326;2024-02-21T05:36:02;16;13;
46885;PMS5003;32622;48.202;11.326;2024-02-21T05:38:05;16;13;
46885;PMS5003;32622;48.202;11.326;2024-02-21T05:40:09;16;13;
46885;PMS5003;32622;48.202;11.326;2024-02-21T05:42:12;15;12;
46885;PMS5003;32622;48.202;11.326;2024-02-21T05:44:14;15;12;
46885;PMS5003;32622;48.202;11.326;2024-02-21T05:46:18;15;12;
46885;PMS5003;32622;48.202;11.326;2024-02-21T05:48:21;15;12;
46885;PMS5003;32622;48.202;11.326;2024-02-21T05:50:24;16;13;
46885;PMS5003;32622;48.202;11.326;2024-02-21T05:52:26;16;13;
46885;PMS5003;32622;48.202;11.326;2024-02-21T05:54:28;16;13;
46885;PMS5003;32622;48.202;11.326;2024-02-21T05:56:30;16;13;
46885;PMS5003;32622;48.202;11.326;2024-02-21T05:58:32;16;13;
46885;PMS5003;32622;48.202;11.326;2024-02-21T06:00:34;16;14;
46885;PMS5003;32622;48.202;11.326;2024-02-21T06:02:36;16;14;
46885;PMS5003;32622;48.202;11.326;2024-02-21T06:04:38;15;13;
46885;PMS5003;32622;48.202;11.326;2024-02-21T06:06:40;13;12;
46885;PMS5003;32622;48.202;11.326;2024-02-21T06:08:42;13;12;
46885;PMS5003;32622;48.202;11.326;2024-02-21T06:10:45;13;12;
46885;PMS5003;32622;48.202;11.326;2024-02-21T06:12:47;14;13;
46885;PMS5003;32622;48.202;11.326;2024-02-21T06:14:49;14;13;
46885;PMS5003;32622;48.202;11.326;2024-02-21T06:16:51;14;13;
46885;PMS5003;32622;48.202;11.326;2024-02-21T06:18:53;15;13;
46885;PMS5003;32622;48.202;11.326;2024-02-21T06:20:55;15;13;
46885;PMS5003;32622;48.202;11.326;2024-02-21T06:22:57;15;13;
46885;PMS5003;32622;48.202;11.326;2024-02-21T06:24:59;14;13;
46885;PMS5003;32622;48.202;11.326;2024-02-21T06:27:02;14;13;
46885;PMS5003;32622;48.202;11.326;2024-02-21T06:29:04;14;13;
46885;PMS5003;32622;48.202;11.326;2024-02-21T06:31:06;13;13;
46885;PMS5003;32622;48.202;11.326;2024-02-21T06:33:09;14;14;
46885;PMS5003;32622;48.202;11.326;2024-02-21T06:35:11;14;14;
46885;PMS5003;32622;48.202;11.326;2024-02-21T06:37:13;13;13;
46885;PMS5003;32622;48.202;11.326;2024-02-21T06:39:15;12;12;
46885;PMS5003;32622;48.202;11.326;2024-02-21T06:41:17;12;12;
46885;PMS5003;32622;48.202;11.326;2024-02-21T06:43:20;13;13;
46885;PMS5003;32622;48.202;11.326;2024-02-21T06:45:22;13;13;
46885;PMS5003;32622;48.202;11.326;2024-02-21T06:47:24;13;13;
46885;PMS5003;32622;48.202;11.326;2024-02-21T06:49:27;13;13;
46885;PMS5003;32622;48.202;11.326;2024-02-21T06:51:29;13;13;
46885;PMS5003;32622;48.202;11.326;2024-02-21T06:53:31;13;13;
46885;PMS5003;32622;48.202;11.326;2024-02-21T06:55:33;13;13;
46885;PMS5003;32622;48.202;11.326;2024-02-21T06:57:35;13;13;
46885;PMS5003;32622;48.202;11.326;2024-02-21T06:59:37;14;14;
46885;PMS5003;32622;48.202;11.326;2024-02-21T07:01:39;14;14;
46885;PMS5003;32622;48.202;11.326;2024-02-21T07:03:41;14;14;
46885;PMS5003;32622;48.202;11.326;2024-02-21T07:05:43;14;14;
46885;PMS5003;32622;48.202;11.326;2024-02-21T07:07:46;13;13;
46885;PMS5003;32622;48.202;11.326;2024-02-21T07:09:48;13;13;
46885;PMS5003;32622;48.202;11.326;2024-02-21T07:11:50;13;13;
46885;PMS5003;32622;48.202;11.326;2024-02-21T07:13:52;13;13;
46885;PMS5003;32622;48.202;11.326;2024-02-21T07:15:54;13;13;
46885;PMS5003;32622;48.202;11.326;2024-02-21T07:17:56;13;13;
46885;PMS5003;32622;48.202;11.326;2024-02-21T07:19:58;13;13;
46885;PMS5003;32622;48.202;11.326;2024-02-21T07:22:00;13;13;
46885;PMS5003;32622;48.202;11.326;2024-02-21T07:24:03;13;13;
46885;PMS5003;32622;48.202;11.326;2024-02-21T07:26:05;14;14;
46885;PMS5003;32622;48.202;11.326;2024-02-21T07:28:07;14;14;
46885;PMS5003;32622;48.202;11.326;2024-02-21T07:30:10;14;14;
46885;PMS5003;32622;48.202;11.326;2024-02-21T07:32:12;14;14;
46885;PMS5003;32622;48.202;11.326;2024-02-21T07:34:14;14;14;
46885;PMS5003;32622;48.202;11.326;2024-02-21T07:36:26;14;14;
46885;PMS5003;32622;48.202;11.326;2024-02-21T07:38:29;14;14;
46885;PMS5003;32622;48.202;11.326;2024-02-21T07:40:32;14;14;
46885;PMS5003;32622;48.202;11.326;2024-02-21T07:42:34;14;14;
46885;PMS5003;32622;48.202;11.326;2024-02-21T07:44:36;14;14;
46885;PMS5003;32622;48.202;11.326;2024-02-21T07:46:38;14;14;
46885;PMS5003;32622;48.202;11.326;2024-02-21T07:48:40;14;14;
46885;PMS5003;32622;48.202;11.326;2024-02-21T07:50:42;13;13;
46885;PMS5003;32622;48.202;11.326;2024-02-21T07:52:44;13;13;
46885;PMS5003;32622;48.202;11.326;2024-02-21T07:54:47;13;13;
46885;PMS5003;32622;48.202;11.326;2024-02-21T07:56:49;13;13;
46885;PMS5003;32622;48.202;11.326;2024-02-21T07:58:51;13;13;
46885;PMS5003;32622;48.202;11.326;2024-02-21T08:00:53;13;13;
46885;PMS5003;32622;48.202;11.326;2024-02-21T08:02:55;13;13;
46885;PMS5003;32622;48.202;11.326;2024-02-21T08:04:57;13;13;
46885;PMS5003;32622;48.202;11.326;2024-02-21T08:06:59;13;13;
46885;PMS5003;32622;48.202;11.326;2024-02-21T08:09:01;14;14;
46885;PMS5003;32622;48.202;11.326;2024-02-21T08:11:04;15;15;
46885;PMS5003;32622;48.202;11.326;2024-02-21T08:13:06;15;15;
46885;PMS5003;32622;48.202;11.326;2024-02-21T08:15:08;15;15;
46885;PMS5003;32622;48.202;11.326;2024-02-21T08:17:11;15;15;
46885;PMS5003;32622;48.202;11.326;2024-02-21T08:19:13;15;15;
46885;PMS5003;32622;48.202;11.326;2024-02-21T08:21:15;16;16;
46885;PMS5003;32622;48.202;11.326;2024-02-21T08:23:17;16;16;
46885;PMS5003;32622;48.202;11.326;2024-02-21T08:25:20;15;15;
46885;PMS5003;32622;48.202;11.326;2024-02-21T08:27:22;13;13;
46885;PMS5003;32622;48.202;11.326;2024-02-21T08:29:24;13;13;
46885;PMS5003;32622;48.202;11.326;2024-02-21T08:31:26;13;13;
46885;PMS5003;32622;48.202;11.326;2024-02-21T08:33:29;13;13;
46885;PMS5003;32622;48.202;11.326;2024-02-21T08:35:31;13;13;
46885;PMS5003;32622;48.202;11.326;2024-02-21T08:37:33;13;13;
46885;PMS5003;32622;48.202;11.326;2024-02-21T08:39:35;14;13;
46885;PMS5003;32622;48.202;11.326;2024-02-21T08:41:37;14;13;
46885;PMS5003;32622;48.202;11.326;2024-02-21T08:43:40;14;13;
46885;PMS5003;32622;48.202;11.326;2024-02-21T08:45:42;16;15;
46885;PMS5003;32622;48.202;11.326;2024-02-21T08:47:44;16;15;
46885;PMS5003;32622;48.202;11.326;2024-02-21T08:49:46;16;15;
46885;PMS5003;32622;48.202;11.326;2024-02-21T08:51:48;16;15;
46885;PMS5003;32622;48.202;11.326;2024-02-21T08:53:50;16;15;
46885;PMS5003;32622;48.202;11.326;2024-02-21T08:55:52;16;15;
46885;PMS5003;32622;48.202;11.326;2024-02-21T08:57:54;16;15;
46885;PMS5003;32622;48.202;11.326;2024-02-21T08:59:56;16;15;
46885;PMS5003;32622;48.202;11.326;2024-02-21T09:01:58;16;15;
46885;PMS5003;32622;48.202;11.326;2024-02-21T09:04:00;17;16;
46885;PMS5003;32622;48.202;11.326;2024-02-21T09:06:03;17;16;
46885;PMS5003;32622;48.202;11.326;2024-02-21T09:08:06;17;16;
46885;PMS5003;32622;48.202;11.326;2024-02-21T09:10:09;17;16;
46885;PMS5003;32622;48.202;11.326;2024-02-21T09:12:11;17;16;
46885;PMS5003;32622;48.202;11.326;2024-02-21T09:14:13;17;16;
46885;PMS5003;32622;48.202;11.326;2024-02-21T09:16:15;17;16;
46885;PMS5003;32622;48.202;11.326;2024-02-21T09:18:17;17;16;
46885;PMS5003;32622;48.202;11.326;2024-02-21T09:20:19;17;16;
46885;PMS5003;32622;48.202;11.326;2024-02-21T09:22:22;17;16;
46885;PMS5003;32622;48.202;11.326;2024-02-21T09:24:24;17;16;
46885;PMS5003;32622;48.202;11.326;2024-02-21T09:26:26;17;16;
46885;PMS5003;32622;48.202;11.326;2024-02-21T09:28:28;18;17;
46885;PMS5003;32622;48.202;11.326;2024-02-21T09:30:30;18;17;
46885;PMS5003;32622;48.202;11.326;2024-02-21T09:32:32;18;17;
46885;PMS5003;32622;48.202;11.326;2024-02-21T09:34:34;17;16;
46885;PMS5003;32622;48.202;11.326;2024-02-21T09:36:37;17;16;
46885;PMS5003;32622;48.202;11.326;2024-02-21T09:38:39;17;16;
46885;PMS5003;32622;48.202;11.326;2024-02-21T09:40:41;16;16;
46885;PMS5003;32622;48.202;11.326;2024-02-21T09:42:44;16;16;
46885;PMS5003;32622;48.202;11.326;2024-02-21T09:44:48;16;16;
46885;PMS5003;32622;48.202;11.326;2024-02-21T09:46:54;16;16;
46885;PMS5003;32622;48.202;11.326;2024-02-21T09:49:06;16;16;
46885;PMS5003;32622;48.202;11.326;2024-02-21T09:51:19;16;16;
46885;PMS5003;32622;48.202;11.326;2024-02-21T09:53:22;17;17;
46885;PMS5003;32622;48.202;11.326;2024-02-21T09:55:26;17;17;
46885;PMS5003;32622;48.202;11.326;2024-02-21T09:57:30;17;17;
46885;PMS5003;32622;48.202;11.326;2024-02-21T09:59:33;17;17;
46885;PMS5003;32622;48.202;11.326;2024-02-21T10:01:35;17;17;
46885;PMS5003;32622;48.202;11.326;2024-02-21T10:03:37;17;17;
46885;PMS5003;32622;48.202;11.326;2024-02-21T10:05:45;17;16;
46885;PMS5003;32622;48.202;11.326;2024-02-21T10:07:49;17;16;
46885;PMS5003;32622;48.202;11.326;2024-02-21T10:10:00;17;16;
46885;PMS5003;32622;48.202;11.326;2024-02-21T10:12:10;17;16;
46885;PMS5003;32622;48.202;11.326;2024-02-21T10:14:13;17;16;
46885;PMS5003;32622;48.202;11.326;2024-02-21T10:16:16;17;16;
46885;PMS5003;32622;48.202;11.326;2024-02-21T10:18:18;16;15;
46885;PMS5003;32622;48.202;11.326;2024-02-21T10:20:20;16;15;
46885;PMS5003;32622;48.202;11.326;2024-02-21T10:22:22;16;15;
46885;PMS5003;32622;48.202;11.326;2024-02-21T10:24:26;15;14;
46885;PMS5003;32622;48.202;11.326;2024-02-21T10:26:28;15;14;
46885;PMS5003;32622;48.202;11.326;2024-02-21T10:28:30;15;14;
46885;PMS5003;32622;48.202;11.326;2024-02-21T10:30:33;15;14;
46885;PMS5003;32622;48.202;11.326;2024-02-21T10:32:35;16;15;
46885;PMS5003;32622;48.202;11.326;2024-02-21T10:34:37;16;15;
46885;PMS5003;32622;48.202;11.326;2024-02-21T10:36:40;16;15;
46885;PMS5003;32622;48.202;11.326;2024-02-21T10:38:43;16;15;
46885;PMS5003;32622;48.202;11.326;2024-02-21T10:40:45;16;15;
46885;PMS5003;32622;48.202;11.326;2024-02-21T10:42:49;16;15;
46885;PMS5003;32622;48.202;11.326;2024-02-21T10:45:00;16;15;
46885;PMS5003;32622;48.202;11.326;2024-02-21T10:47:03;15;14;
46885;PMS5003;32622;48.202;11.326;2024-02-21T10:49:10;14;13;
46885;PMS5003;32622;48.202;11.326;2024-02-21T10:51:20;14;13;
46885;PMS5003;32622;48.202;11.326;2024-02-21T10:53:28;14;13;
46885;PMS5003;32622;48.202;11.326;2024-02-21T10:55:38;14;13;
46885;PMS5003;32622;48.202;11.326;2024-02-21T10:57:43;14;13;
46885;PMS5003;32622;48.202;11.326;2024-02-21T10:59:45;14;13;
46885;PMS5003;32622;48.202;11.326;2024-02-21T11:01:49;15;14;
46885;PMS5003;32622;48.202;11.326;2024-02-21T11:03:52;15;14;
46885;PMS5003;32622;48.202;11.326;2024-02-21T11:05:55;15;14;
46885;PMS5003;32622;48.202;11.326;2024-02-21T11:07:58;14;14;
46885;PMS5003;32622;48.202;11.326;2024-02-21T11:10:00;14;14;
46885;PMS5003;32622;48.202;11.326;2024-02-21T11:12:03;14;14;
46885;PMS5003;32622;48.202;11.326;2024-02-21T11:14:07;14;14;
46885;PMS5003;32622;48.202;11.326;2024-02-21T11:16:11;14;14;
46885;PMS5003;32622;48.202;11.326;2024-02-21T11:18:23;14;14;
46885;PMS5003;32622;48.202;11.326;2024-02-21T11:20:31;14;14;
46885;PMS5003;32622;48.202;11.326;2024-02-21T11:22:40;14;14;
46885;PMS5003;32622;48.202;11.326;2024-02-21T11:24:43;14;14;
46885;PMS5003;32622;48.202;11.326;2024-02-21T11:26:45;13;13;
46885;PMS5003;32622;48.202;11.326;2024-02-21T11:28:56;13;13;
46885;PMS5003;32622;48.202;11.326;2024-02-21T11:31:06;12;12;
46885;PMS5003;32622;48.202;11.326;2024-02-21T11:33:09;13;13;
46885;PMS5003;32622;48.202;11.326;2024-02-21T11:35:18;13;13;
46885;PMS5003;32622;48.202;11.326;2024-02-21T11:37:21;14;14;
46885;PMS5003;32622;48.202;11.326;2024-02-21T11:39:27;13;13;
46885;PMS5003;32622;48.202;11.326;2024-02-21T11:41:29;13;13;
46885;PMS5003;32622;48.202;11.326;2024-02-21T11:43:31;13;13;
46885;PMS5003;32622;48.202;11.326;2024-02-21T11:45:33;13;13;
46885;PMS5003;32622;48.202;11.326;2024-02-21T11:47:35;13;13;
46885;PMS5003;32622;48.202;11.326;2024-02-21T11:49:38;13;13;
46885;PMS5003;32622;48.202;11.326;2024-02-21T11:51:44;14;14;
46885;PMS5003;32622;48.202;11.326;2024-02-21T11:53:46;14;14;
46885;PMS5003;32622;48.202;11.326;2024-02-21T11:55:49;14;14;
46885;PMS5003;32622;48.202;11.326;2024-02-21T11:57:51;14;13;
46885;PMS5003;32622;48.202;11.326;2024-02-21T11:59:53;14;13;
46885;PMS5003;32622;48.202;11.326;2024-02-21T12:01:55;14;13;
46885;PMS5003;32622;48.202;11.326;2024-02-21T12:04:00;14;13;
46885;PMS5003;32622;48.202;11.326;2024-02-21T12:06:02;14;13;
46885;PMS5003;32622;48.202;11.326;2024-02-21T12:08:05;14;13;
46885;PMS5003;32622;48.202;11.326;2024-02-21T12:10:08;14;13;
46885;PMS5003;32622;48.202;11.326;2024-02-21T12:12:11;14;13;
46885;PMS5003;32622;48.202;11.326;2024-02-21T12:14:15;14;13;
46885;PMS5003;32622;48.202;11.326;2024-02-21T12:16:18;14;13;
46885;PMS5003;32622;48.202;11.326;2024-02-21T12:18:20;14;13;
46885;PMS5003;32622;48.202;11.326;2024-02-21T12:20:22;14;13;
46885;PMS5003;32622;48.202;11.326;2024-02-21T12:22:25;14;13;
46885;PMS5003;32622;48.202;11.326;2024-02-21T12:24:27;14;13;
46885;PMS5003;32622;48.202;11.326;2024-02-21T12:26:30;14;13;
46885;PMS5003;32622;48.202;11.326;2024-02-21T12:28:32;14;13;
46885;PMS5003;32622;48.202;11.326;2024-02-21T12:30:34;14;13;
46885;PMS5003;32622;48.202;11.326;2024-02-21T12:32:37;14;13;
46885;PMS5003;32622;48.202;11.326;2024-02-21T12:34:40;13;12;
46885;PMS5003;32622;48.202;11.326;2024-02-21T12:36:42;13;12;
46885;PMS5003;32622;48.202;11.326;2024-02-21T12:38:45;13;12;
46885;PMS5003;32622;48.202;11.326;2024-02-21T12:40:48;14;13;
46885;PMS5003;32622;48.202;11.326;2024-02-21T12:42:51;14;13;
46885;PMS5003;32622;48.202;11.326;2024-02-21T12:44:53;14;13;
46885;PMS5003;32622;48.202;11.326;2024-02-21T12:46:55;14;13;
46885;PMS5003;32622;48.202;11.326;2024-02-21T12:48:57;14;13;
46885;PMS5003;32622;48.202;11.326;2024-02-21T12:50:59;14;13;
46885;PMS5003;32622;48.202;11.326;2024-02-21T12:53:02;14;13;
46885;PMS5003;32622;48.202;11.326;2024-02-21T12:55:04;15;14;
46885;PMS5003;32622;48.202;11.326;2024-02-21T12:57:07;15;14;
46885;PMS5003;32622;48.202;11.326;2024-02-21T12:59:09;15;15;
46885;PMS5003;32622;48.202;11.326;2024-02-21T13:01:12;15;15;
46885;PMS5003;32622;48.202;11.326;2024-02-21T13:03:14;15;15;
46885;PMS5003;32622;48.202;11.326;2024-02-21T13:05:16;15;15;
46885;PMS5003;32622;48.202;11.326;2024-02-21T13:07:18;15;15;
46885;PMS5003;32622;48.202;11.326;2024-02-21T13:09:20;15;15;
46885;PMS5003;32622;48.202;11.326;2024-02-21T13:11:23;15;15;
46885;PMS5003;32622;48.202;11.326;2024-02-21T13:13:25;15;15;
46885;PMS5003;32622;48.202;11.326;2024-02-21T13:15:27;15;15;
46885;PMS5003;32622;48.202;11.326;2024-02-21T13:17:29;15;15;
46885;PMS5003;32622;48.202;11.326;2024-02-21T13:19:31;15;15;
46885;PMS5003;32622;48.202;11.326;2024-02-21T13:21:33;15;15;